createdAt,value
2023-01-22T00:02:10.255Z,52.47
2023-01-22T00:04:38.734Z,58.93
2023-01-22T00:07:06.899Z,53.40
2023-01-22T00:09:35.044Z,56.43
2023-01-22T00:12:03.228Z,54.03
2023-01-22T00:14:31.489Z,60.43
2023-01-22T00:17:00.018Z,57.87
2023-01-22T00:19:29.544Z,53.70
2023-01-22T00:21:57.693Z,53.50
2023-01-22T00:24:25.846Z,47.97
2023-01-22T00:26:53.966Z,52.03
2023-01-22T00:29:22.121Z,52.67
2023-01-22T00:31:50.491Z,53.50
2023-01-22T00:34:18.648Z,55.87
2023-01-22T00:36:48.128Z,46.70
2023-01-22T00:39:16.256Z,49.33
2023-01-22T00:41:44.463Z,47.27
2023-01-22T00:44:12.601Z,50.67
2023-01-22T00:46:40.800Z,52.03
2023-01-22T00:49:09.045Z,46.83
2023-01-22T00:51:39.338Z,50.77
2023-01-22T00:54:10.588Z,55.00
2023-01-22T00:56:38.803Z,54.00
2023-01-22T00:59:10.362Z,50.87
2023-01-22T01:01:39.246Z,50.23
2023-01-22T01:04:07.585Z,47.33
2023-01-22T01:06:35.725Z,48.73
2023-01-22T01:09:05.254Z,50.63
2023-01-22T01:11:34.744Z,49.27
2023-01-22T01:14:03.641Z,46.70
2023-01-22T01:16:32.793Z,47.80
2023-01-22T01:19:01.464Z,49.93
2023-01-22T01:21:29.841Z,54.30
2023-01-22T01:23:58.344Z,48.97
2023-01-22T01:26:26.807Z,52.83
2023-01-22T01:28:56.358Z,56.33
2023-01-22T01:31:26.073Z,52.97
2023-01-22T01:33:54.613Z,51.80
2023-01-22T01:36:46.204Z,51.93
2023-01-22T01:39:12.244Z,50.50
2023-01-22T01:41:40.365Z,48.63
2023-01-22T01:44:11.176Z,45.57
2023-01-22T01:46:42.201Z,51.13
2023-01-22T01:49:17.298Z,47.60
2023-01-22T01:51:45.465Z,48.57
2023-01-22T01:54:14.196Z,46.00
2023-01-22T01:56:44.598Z,52.10
2023-01-22T01:59:15.785Z,46.23
2023-01-22T02:01:44.358Z,50.87
2023-01-22T02:04:12.559Z,45.27
2023-01-22T02:06:41.107Z,51.07
2023-01-22T02:09:09.385Z,48.07
2023-01-22T02:11:37.894Z,48.00
2023-01-22T02:14:07.344Z,56.83
2023-01-22T02:16:36.982Z,52.50
2023-01-22T02:19:05.569Z,53.43
2023-01-22T02:21:36.652Z,49.43
2023-01-22T02:24:05.269Z,50.27
2023-01-22T02:26:33.565Z,51.27
2023-01-22T02:29:01.751Z,52.70
2023-01-22T02:31:29.929Z,50.87
2023-01-22T02:33:58.161Z,48.50
2023-01-22T02:36:26.306Z,45.30
2023-01-22T02:38:55.899Z,47.27
2023-01-22T02:41:24.370Z,46.80
2023-01-22T02:43:52.511Z,47.50
2023-01-22T02:46:20.728Z,47.30
2023-01-22T02:48:48.883Z,46.50
2023-01-22T02:51:17.160Z,46.73
2023-01-22T02:53:45.363Z,43.93
2023-01-22T02:56:14.974Z,48.17
2023-01-22T02:58:43.142Z,46.27
2023-01-22T03:01:18.867Z,47.40
2023-01-22T03:03:47.324Z,52.50
2023-01-22T03:06:16.029Z,45.03
2023-01-22T03:08:44.913Z,45.00
2023-01-22T03:11:14.437Z,43.00
2023-01-22T03:14:00.470Z,44.83
2023-01-22T03:16:46.331Z,45.40
2023-01-22T03:19:32.491Z,49.90
2023-01-22T03:22:00.640Z,44.43
2023-01-22T03:24:28.869Z,48.33
2023-01-22T03:26:58.390Z,45.93
2023-01-22T03:29:26.543Z,48.80
2023-01-22T03:31:54.829Z,46.00
2023-01-22T03:34:23.859Z,47.77
2023-01-22T03:36:52.079Z,47.83
2023-01-22T03:39:20.245Z,44.03
2023-01-22T03:41:48.408Z,48.03
2023-01-22T03:44:18.008Z,44.50
2023-01-22T03:46:46.146Z,43.50
2023-01-22T03:49:15.045Z,44.70
2023-01-22T03:51:43.362Z,42.67
2023-01-22T03:54:12.440Z,41.53
2023-01-22T03:56:41.672Z,45.33
2023-01-22T03:59:11.878Z,41.43
2023-01-22T04:01:41.425Z,43.13
2023-01-22T04:04:09.579Z,45.80
2023-01-22T04:06:37.758Z,43.97
2023-01-22T04:09:05.912Z,46.07
2023-01-22T04:11:34.171Z,45.20
2023-01-22T04:14:02.326Z,47.70
2023-01-22T04:16:30.550Z,39.97
2023-01-22T04:19:00.037Z,44.03
2023-01-22T04:21:28.202Z,42.60
2023-01-22T04:23:56.629Z,43.63
2023-01-22T04:26:24.805Z,45.40
2023-01-22T04:28:52.932Z,42.43
2023-01-22T04:31:21.200Z,43.33
2023-01-22T04:33:49.514Z,42.90
2023-01-22T04:36:19.037Z,45.07
2023-01-22T04:38:47.217Z,42.63
2023-01-22T04:41:15.350Z,45.70
2023-01-22T04:43:43.512Z,44.13
2023-01-22T04:46:11.716Z,39.23
2023-01-22T04:48:39.939Z,42.33
2023-01-22T04:51:08.136Z,42.13
2023-01-22T04:53:37.650Z,40.50
2023-01-22T04:56:06.134Z,45.13
2023-01-22T04:58:34.270Z,45.70
2023-01-22T05:01:02.527Z,43.33
2023-01-22T05:03:30.656Z,41.00
2023-01-22T05:05:58.821Z,41.03
2023-01-22T05:08:26.990Z,42.47
2023-01-22T05:10:56.495Z,39.53
2023-01-22T05:13:24.645Z,41.90
2023-01-22T05:15:52.809Z,41.07
2023-01-22T05:18:20.986Z,40.30
2023-01-22T05:20:49.162Z,41.50
2023-01-22T05:23:17.321Z,38.97
2023-01-22T05:25:49.055Z,40.07
2023-01-22T05:28:18.598Z,44.70
2023-01-22T05:30:46.845Z,36.67
2023-01-22T05:33:15.069Z,43.83
2023-01-22T05:35:43.217Z,44.67
2023-01-22T05:38:11.371Z,36.47
2023-01-22T05:40:39.559Z,45.23
2023-01-22T05:43:07.731Z,37.40
2023-01-22T05:45:37.276Z,40.17
2023-01-22T05:48:05.547Z,41.97
2023-01-22T05:50:33.723Z,41.77
2023-01-22T05:53:01.885Z,39.17
2023-01-22T05:55:30.172Z,39.00
2023-01-22T05:57:58.319Z,45.60
2023-01-22T06:00:26.621Z,42.13
2023-01-22T06:02:57.744Z,43.77
2023-01-22T06:05:25.962Z,42.87
2023-01-22T06:07:54.247Z,45.13
2023-01-22T06:10:22.423Z,39.73
2023-01-22T06:12:50.535Z,43.43
2023-01-22T06:15:18.711Z,42.53
2023-01-22T06:17:46.844Z,38.10
2023-01-22T06:20:16.680Z,42.37
2023-01-22T06:22:44.962Z,41.00
2023-01-22T06:25:13.088Z,45.60
2023-01-22T06:27:41.249Z,38.97
2023-01-22T06:30:10.062Z,40.53
2023-01-22T06:32:38.238Z,42.77
2023-01-22T06:35:06.745Z,39.80
2023-01-22T06:37:36.278Z,42.93
2023-01-22T06:40:04.438Z,39.93
2023-01-22T06:42:32.883Z,44.70
2023-01-22T06:45:01.069Z,40.83
2023-01-22T06:47:29.228Z,41.33
2023-01-22T06:49:57.384Z,41.80
2023-01-22T06:52:25.597Z,44.60
2023-01-22T06:54:55.128Z,40.27
2023-01-22T06:57:23.332Z,41.83
2023-01-22T06:59:51.485Z,41.33
2023-01-22T07:02:20.336Z,43.72
2023-01-22T07:04:48.672Z,39.97
2023-01-22T07:07:16.820Z,41.53
2023-01-22T07:09:44.971Z,43.70
2023-01-22T07:12:14.557Z,38.10
2023-01-22T07:14:42.716Z,39.57
2023-01-22T07:17:11.177Z,41.00
2023-01-22T07:19:39.386Z,41.60
2023-01-22T07:22:07.873Z,40.37
2023-01-22T07:24:36.015Z,36.60
2023-01-22T07:27:04.479Z,39.70
2023-01-22T07:29:33.976Z,39.73
2023-01-22T07:32:02.136Z,38.87
2023-01-22T07:34:30.291Z,38.83
2023-01-22T07:36:58.604Z,39.23
2023-01-22T07:39:26.826Z,37.60
2023-01-22T07:41:55.013Z,35.47
2023-01-22T07:44:23.182Z,39.23
2023-01-22T07:46:52.730Z,41.67
2023-01-22T07:49:21.011Z,40.83
2023-01-22T07:51:49.168Z,41.90
2023-01-22T07:54:18.622Z,39.63
2023-01-22T07:56:46.831Z,43.37
2023-01-22T07:59:14.980Z,37.77
2023-01-22T08:01:43.160Z,40.23
2023-01-22T08:04:12.677Z,40.37
2023-01-22T08:06:40.856Z,37.60
2023-01-22T08:09:09.004Z,36.30
2023-01-22T08:11:37.150Z,37.33
2023-01-22T08:14:05.315Z,39.03
2023-01-22T08:16:33.627Z,39.80
2023-01-22T08:19:01.784Z,38.03
2023-01-22T08:21:31.270Z,39.33
2023-01-22T08:23:59.449Z,40.93
2023-01-22T08:26:27.598Z,39.33
2023-01-22T08:28:55.762Z,39.17
2023-01-22T08:31:28.276Z,39.13
2023-01-22T08:33:56.809Z,41.83
2023-01-22T08:36:24.939Z,40.27
2023-01-22T08:38:54.456Z,41.93
2023-01-22T08:41:22.738Z,36.73
2023-01-22T08:43:50.938Z,36.27
2023-01-22T08:46:19.123Z,36.47
2023-01-22T08:48:48.790Z,35.37
2023-01-22T08:51:17.026Z,33.97
2023-01-22T08:53:45.230Z,32.77
2023-01-22T08:56:14.772Z,38.20
2023-01-22T08:58:42.906Z,33.03
2023-01-22T09:01:15.588Z,36.33
2023-01-22T09:03:44.052Z,37.77
2023-01-22T09:06:12.315Z,34.77
2023-01-22T09:08:40.668Z,38.93
2023-01-22T09:11:08.820Z,36.50
2023-01-22T09:13:38.348Z,35.60
2023-01-22T09:16:10.656Z,35.50
2023-01-22T09:18:38.919Z,36.20
2023-01-22T09:21:08.088Z,34.07
2023-01-22T09:23:36.271Z,35.07
2023-01-22T09:26:04.448Z,34.90
2023-01-22T09:28:35.075Z,36.33
2023-01-22T09:31:05.490Z,32.93
2023-01-22T09:33:33.644Z,33.80
2023-01-22T09:36:08.708Z,34.93
2023-01-22T09:38:37.087Z,31.63
2023-01-22T09:41:09.516Z,33.97
2023-01-22T09:43:39.345Z,33.67
2023-01-22T09:46:14.540Z,31.80
2023-01-22T09:48:45.041Z,30.93
2023-01-22T09:51:15.088Z,30.70
2023-01-22T09:53:44.001Z,33.73
2023-01-22T09:56:16.581Z,34.47
2023-01-22T09:58:44.930Z,31.67
2023-01-22T10:01:14.436Z,34.87
2023-01-22T10:03:43.922Z,34.10
2023-01-22T10:06:18.280Z,35.93
2023-01-22T10:08:52.381Z,35.10
2023-01-22T10:11:20.597Z,36.53
2023-01-22T10:13:50.767Z,33.07
2023-01-22T10:16:20.274Z,35.07
2023-01-22T10:18:50.035Z,33.20
2023-01-22T10:21:20.046Z,35.33
2023-01-22T10:23:50.079Z,33.40
2023-01-22T10:26:24.878Z,32.63
2023-01-22T10:28:53.961Z,34.23
2023-01-22T10:31:25.055Z,31.40
2023-01-22T10:33:57.428Z,32.17
2023-01-22T10:36:25.797Z,32.87
2023-01-22T10:39:04.518Z,36.23
2023-01-22T10:41:33.090Z,36.33
2023-01-22T10:44:09.407Z,34.83
2023-01-22T10:46:38.898Z,31.63
2023-01-22T10:49:08.457Z,33.93
2023-01-22T10:51:38.208Z,31.33
2023-01-22T10:54:06.961Z,31.17
2023-01-22T10:56:36.226Z,31.60
2023-01-22T10:59:05.651Z,35.53
2023-01-22T11:01:36.042Z,32.63
2023-01-22T11:04:14.585Z,35.80
2023-01-22T11:06:43.489Z,37.30
2023-01-22T11:09:15.308Z,37.73
2023-01-22T11:11:47.185Z,34.60
2023-01-22T11:14:19.996Z,34.43
2023-01-22T11:16:50.304Z,37.13
2023-01-22T11:19:32.634Z,38.10
2023-01-22T11:22:07.006Z,33.53
2023-01-22T11:24:38.532Z,33.53
2023-01-22T11:27:16.098Z,37.07
2023-01-22T11:29:53.249Z,38.23
2023-01-22T11:32:35.197Z,34.50
2023-01-22T11:35:14.156Z,35.77
2023-01-22T11:37:48.032Z,38.43
2023-01-22T11:40:21.393Z,33.27
2023-01-22T11:42:55.149Z,33.10
2023-01-22T11:45:29.923Z,31.70
2023-01-22T11:48:11.333Z,33.23
2023-01-22T11:50:43.800Z,31.60
2023-01-22T11:53:19.964Z,32.23
2023-01-22T11:55:56.739Z,34.40
2023-01-22T11:58:29.910Z,33.33
2023-01-22T12:01:05.519Z,32.67
2023-01-22T12:03:56.280Z,32.73
2023-01-22T12:06:32.165Z,34.70
2023-01-22T12:09:04.000Z,32.97
2023-01-22T12:11:43.802Z,36.67
2023-01-22T12:14:17.335Z,34.13
2023-01-22T12:16:50.149Z,38.40
2023-01-22T12:19:32.908Z,36.27
2023-01-22T12:22:06.289Z,36.43
2023-01-22T12:24:39.022Z,36.23
2023-01-22T12:27:10.216Z,36.13
2023-01-22T12:29:42.232Z,40.17
2023-01-22T12:32:12.324Z,35.83
2023-01-22T12:34:44.029Z,38.77
2023-01-22T12:37:15.314Z,35.53
2023-01-22T12:39:47.842Z,34.50
2023-01-22T12:42:21.245Z,36.00
2023-01-22T12:44:56.170Z,39.10
2023-01-22T12:47:28.472Z,37.13
2023-01-22T12:49:56.672Z,38.17
2023-01-22T12:52:31.811Z,38.37
2023-01-22T12:55:00.420Z,36.17
2023-01-22T12:57:37.746Z,37.43
2023-01-22T13:00:25.226Z,36.77
2023-01-22T13:02:53.546Z,37.87
2023-01-22T13:05:24.068Z,38.63
2023-01-22T13:08:03.566Z,37.50
2023-01-22T13:10:32.610Z,36.10
2023-01-22T13:13:02.728Z,39.13
2023-01-22T13:15:32.478Z,34.97
2023-01-22T13:18:07.212Z,35.93
2023-01-22T13:20:37.135Z,39.87
2023-01-22T13:23:08.407Z,38.43
2023-01-22T13:25:36.571Z,41.07
2023-01-22T13:28:05.046Z,37.37
2023-01-22T13:30:33.566Z,37.97
2023-01-22T13:33:06.039Z,43.83
2023-01-22T13:35:36.437Z,39.70
2023-01-22T13:38:04.819Z,42.13
2023-01-22T13:40:46.422Z,41.03
2023-01-22T13:43:19.557Z,41.13
2023-01-22T13:45:47.796Z,38.23
2023-01-22T13:48:17.495Z,43.70
2023-01-22T13:50:47.673Z,41.77
2023-01-22T13:53:23.006Z,44.77
2023-01-22T13:55:52.978Z,43.37
2023-01-22T13:58:47.943Z,46.90
2023-01-22T14:01:28.285Z,43.07
2023-01-22T14:04:00.231Z,43.13
2023-01-22T14:06:28.579Z,45.17
2023-01-22T14:08:57.897Z,44.83
2023-01-22T14:11:27.491Z,41.57
2023-01-22T14:13:56.349Z,39.27
2023-01-22T14:16:24.542Z,44.20
2023-01-22T14:18:52.838Z,47.57
2023-01-22T14:21:20.992Z,46.03
2023-01-22T14:23:49.110Z,47.27
2023-01-22T14:26:17.257Z,48.47
2023-01-22T14:28:46.764Z,46.97
2023-01-22T14:31:14.928Z,49.10
2023-01-22T14:33:43.048Z,45.30
2023-01-22T14:36:11.373Z,46.83
2023-01-22T14:38:39.554Z,45.67
2023-01-22T14:41:08.345Z,47.20
2023-01-22T14:43:36.547Z,47.13
2023-01-22T14:46:08.455Z,49.33
2023-01-22T14:48:36.655Z,51.83
2023-01-22T14:51:09.318Z,45.33
2023-01-22T14:53:37.566Z,45.47
2023-01-22T14:56:05.937Z,48.20
2023-01-22T14:58:34.403Z,44.97
2023-01-22T15:01:02.611Z,45.50
2023-01-22T15:03:32.625Z,49.73
2023-01-22T15:06:00.890Z,49.87
2023-01-22T15:08:29.079Z,50.10
2023-01-22T15:10:57.258Z,50.60
2023-01-22T15:13:25.380Z,47.03
2023-01-22T15:15:53.530Z,45.87
2023-01-22T15:18:21.671Z,50.23
2023-01-22T15:20:51.176Z,47.63
2023-01-22T15:23:19.314Z,46.73
2023-01-22T15:25:57.143Z,47.90
2023-01-22T15:28:25.358Z,49.77
2023-01-22T15:30:56.552Z,52.17
2023-01-22T15:33:24.754Z,49.27
2023-01-22T15:35:54.241Z,55.13
2023-01-22T15:38:22.421Z,53.63
2023-01-22T15:40:50.685Z,54.60
2023-01-22T15:43:18.832Z,52.23
2023-01-22T15:45:46.980Z,55.37
2023-01-22T15:48:16.031Z,50.97
2023-01-22T15:50:44.178Z,50.33
2023-01-22T15:53:13.667Z,56.37
2023-01-22T15:55:41.846Z,52.70
2023-01-22T15:58:10.024Z,57.50
2023-01-22T16:00:38.165Z,57.83
2023-01-22T16:03:06.535Z,54.50
2023-01-22T16:05:34.693Z,60.70
2023-01-22T16:08:03.323Z,55.93
2023-01-22T16:10:32.823Z,55.33
2023-01-22T16:13:00.964Z,51.93
2023-01-22T16:15:29.107Z,54.67
2023-01-22T16:17:57.998Z,52.20
2023-01-22T16:20:26.146Z,57.73
2023-01-22T16:22:54.385Z,52.97
2023-01-22T16:25:22.692Z,54.53
2023-01-22T16:27:52.232Z,52.23
2023-01-22T16:30:20.776Z,60.83
2023-01-22T16:32:51.094Z,53.37
2023-01-22T16:35:19.301Z,46.47
2023-01-22T16:37:47.477Z,53.27
2023-01-22T16:40:15.684Z,57.57
2023-01-22T16:42:56.260Z,57.50
2023-01-22T16:45:25.763Z,53.20
2023-01-22T16:47:53.922Z,52.67
2023-01-22T16:50:22.091Z,54.17
2023-01-22T16:52:50.233Z,62.13
2023-01-22T16:55:18.394Z,58.67
2023-01-22T16:57:46.508Z,57.23
2023-01-22T17:00:14.983Z,52.47
2023-01-22T17:02:44.670Z,63.20
2023-01-22T17:05:13.746Z,52.30
2023-01-22T17:07:42.211Z,57.27
2023-01-22T17:10:11.089Z,53.17
2023-01-22T17:12:39.264Z,63.70
2023-01-22T17:15:08.147Z,58.90
2023-01-22T17:17:36.321Z,59.03
2023-01-22T17:20:06.147Z,54.83
2023-01-22T17:22:35.840Z,60.13
2023-01-22T17:25:04.091Z,60.80
2023-01-22T17:27:32.522Z,59.57
2023-01-22T17:30:00.679Z,64.43
2023-01-22T17:32:28.839Z,62.70
2023-01-22T17:34:56.995Z,60.47
2023-01-22T17:37:26.573Z,60.47
2023-01-22T17:39:54.781Z,60.50
2023-01-22T17:42:23.049Z,58.00
2023-01-22T17:44:51.207Z,62.37
2023-01-22T17:47:19.363Z,64.20
2023-01-22T17:49:49.022Z,61.00
2023-01-22T17:52:17.841Z,69.57
2023-01-22T17:54:47.388Z,74.33
2023-01-22T17:57:15.515Z,66.53
2023-01-22T17:59:43.987Z,75.60
2023-01-22T18:02:12.265Z,69.23
2023-01-22T18:04:40.458Z,72.47
2023-01-22T18:07:08.609Z,79.17
2023-01-22T18:09:36.744Z,71.67
2023-01-22T18:12:06.475Z,75.43
2023-01-22T18:14:34.788Z,75.67
2023-01-22T18:17:03.637Z,68.80
2023-01-22T18:19:31.901Z,67.23
2023-01-22T18:22:00.175Z,73.57
2023-01-22T18:24:31.082Z,64.13
2023-01-22T18:26:59.241Z,58.87
2023-01-22T18:29:28.887Z,65.70
2023-01-22T18:31:57.125Z,72.37
2023-01-22T18:34:25.329Z,70.80
2023-01-22T18:36:53.513Z,71.43
2023-01-22T18:39:22.208Z,68.30
2023-01-22T18:41:50.585Z,64.27
2023-01-22T18:44:19.799Z,67.17
2023-01-22T18:46:51.679Z,69.17
2023-01-22T18:49:20.460Z,68.13
2023-01-22T18:51:48.679Z,65.93
2023-01-22T18:54:17.249Z,68.57
2023-01-22T18:56:45.452Z,60.77
2023-01-22T18:59:13.799Z,66.47
2023-01-22T19:01:44.294Z,76.43
2023-01-22T19:04:18.943Z,79.97
2023-01-22T19:06:48.509Z,74.87
2023-01-22T19:09:16.823Z,73.73
2023-01-22T19:11:46.994Z,68.27
2023-01-22T19:14:16.302Z,77.77
2023-01-22T19:16:48.144Z,69.00
2023-01-22T19:19:17.785Z,71.33
2023-01-22T19:21:47.296Z,79.43
2023-01-22T19:24:16.642Z,73.43
2023-01-22T19:26:46.569Z,80.57
2023-01-22T19:29:17.122Z,78.27
2023-01-22T19:31:46.493Z,65.20
2023-01-22T19:34:18.443Z,69.67
2023-01-22T19:36:47.971Z,74.10
2023-01-22T19:39:16.170Z,78.10
2023-01-22T19:41:44.469Z,71.87
2023-01-22T19:44:13.172Z,73.43
2023-01-22T19:46:41.697Z,71.60
2023-01-22T19:49:12.573Z,69.60
2023-01-22T19:51:41.117Z,78.07
2023-01-22T19:54:10.628Z,75.10
2023-01-22T19:56:39.104Z,77.87
2023-01-22T19:59:08.823Z,78.30
2023-01-22T20:01:37.743Z,74.03
2023-01-22T20:04:08.794Z,65.33
2023-01-22T20:06:36.988Z,79.43
2023-01-22T20:09:05.260Z,74.53
2023-01-22T20:11:34.867Z,65.20
2023-01-22T20:14:03.026Z,75.50
2023-01-22T20:16:31.755Z,80.37
2023-01-22T20:18:59.983Z,75.87
2023-01-22T20:21:28.474Z,80.80
2023-01-22T20:23:56.656Z,74.57
2023-01-22T20:26:25.029Z,83.40
2023-01-22T20:28:54.543Z,87.83
2023-01-22T20:31:24.010Z,86.13
2023-01-22T20:33:52.691Z,77.20
2023-01-22T20:36:21.992Z,78.83
2023-01-22T20:38:53.019Z,83.17
2023-01-22T20:41:21.827Z,74.90
2023-01-22T20:43:50.182Z,85.40
2023-01-22T20:46:20.875Z,90.17
2023-01-22T20:48:49.188Z,74.60
2023-01-22T20:51:18.852Z,81.87
2023-01-22T20:53:47.529Z,80.87
2023-01-22T20:56:16.664Z,79.40
2023-01-22T20:58:45.107Z,83.77
2023-01-22T21:01:14.630Z,87.23
2023-01-22T21:03:44.595Z,92.43
2023-01-22T21:06:14.248Z,83.70
2023-01-22T21:08:43.104Z,75.60
2023-01-22T21:11:12.079Z,94.57
2023-01-22T21:13:40.267Z,73.00
2023-01-22T21:16:08.924Z,83.90
2023-01-22T21:18:41.200Z,86.63
2023-01-22T21:21:11.452Z,79.03
2023-01-22T21:23:40.150Z,82.63
2023-01-22T21:26:09.147Z,89.07
2023-01-22T21:28:39.537Z,77.73
2023-01-22T21:31:08.340Z,93.63
2023-01-22T21:33:36.618Z,87.93
2023-01-22T21:36:04.828Z,84.90
2023-01-22T21:38:34.377Z,83.90
2023-01-22T21:41:06.469Z,80.80
2023-01-22T21:43:52.360Z,78.67
2023-01-22T21:46:25.155Z,89.20
2023-01-22T21:48:54.239Z,96.83
2023-01-22T21:51:22.482Z,82.80
2023-01-22T21:53:53.528Z,77.77
2023-01-22T21:56:21.691Z,91.60
2023-01-22T21:58:50.056Z,99.03
2023-01-22T22:01:19.513Z,118.43
2023-01-22T22:03:47.903Z,89.67
2023-01-22T22:06:16.118Z,89.03
2023-01-22T22:08:44.333Z,86.43
2023-01-22T22:11:14.255Z,84.30
2023-01-22T22:13:42.502Z,97.17
2023-01-22T22:16:12.898Z,83.50
2023-01-22T22:18:41.641Z,93.63
2023-01-22T22:21:10.010Z,101.43
2023-01-22T22:23:38.944Z,111.13
2023-01-22T22:26:07.707Z,101.00
2023-01-22T22:28:37.462Z,93.63
2023-01-22T22:31:06.272Z,94.00
2023-01-22T22:33:34.478Z,97.43
2023-01-22T22:36:02.800Z,98.40
2023-01-22T22:38:30.977Z,143.80
2023-01-22T22:41:00.104Z,93.80
2023-01-22T22:43:28.284Z,98.77
2023-01-22T22:45:57.796Z,87.43
2023-01-22T22:48:25.947Z,90.70
2023-01-22T22:50:54.147Z,94.23
2023-01-22T22:53:22.325Z,100.33
2023-01-22T22:55:50.533Z,107.70
2023-01-22T22:58:18.795Z,97.73
2023-01-22T23:00:46.951Z,93.70
2023-01-22T23:03:16.552Z,120.40
2023-01-22T23:05:44.734Z,128.07
2023-01-22T23:08:12.913Z,139.97
2023-01-22T23:10:41.098Z,95.73
2023-01-22T23:13:09.235Z,92.83
2023-01-22T23:15:37.724Z,104.93
2023-01-22T23:18:05.915Z,109.13
2023-01-22T23:20:36.392Z,148.13
2023-01-22T23:23:04.546Z,124.97
2023-01-22T23:25:32.757Z,132.83
2023-01-22T23:28:00.908Z,80.33
2023-01-22T23:30:29.039Z,96.50
2023-01-22T23:32:57.179Z,96.23
2023-01-22T23:35:25.295Z,97.47
2023-01-22T23:37:54.811Z,85.23
2023-01-22T23:40:22.951Z,91.33
2023-01-22T23:42:51.097Z,100.00
2023-01-22T23:45:19.232Z,92.17
2023-01-22T23:47:47.348Z,133.60
2023-01-22T23:50:15.515Z,82.43
2023-01-22T23:52:43.798Z,92.93
2023-01-22T23:55:13.457Z,89.20
2023-01-22T23:57:41.613Z,93.87
